sensor_id;sensor_type;location;lat;lon;timestamp;P1;durP1;ratioP1;P2;durP2;ratioP2
12124;SDS011;6126;57.908;16.490;2023-04-25T00:01:38;1.48;;;1.38;;
12124;SDS011;6126;57.908;16.490;2023-04-25T00:04:04;2.03;;;1.40;;
12124;SDS011;6126;57.908;16.490;2023-04-25T00:06:31;1.48;;;1.38;;
12124;SDS011;6126;57.908;16.490;2023-04-25T00:09:01;1.63;;;1.52;;
12124;SDS011;6126;57.908;16.490;2023-04-25T00:11:35;1.35;;;1.17;;
12124;SDS011;6126;57.908;16.490;2023-04-25T00:14:01;1.33;;;1.23;;
12124;SDS011;6126;57.908;16.490;2023-04-25T00:16:29;1.00;;;1.00;;
12124;SDS011;6126;57.908;16.490;2023-04-25T00:18:59;1.30;;;1.20;;
12124;SDS011;6126;57.908;16.490;2023-04-25T00:21:27;1.30;;;1.20;;
12124;SDS011;6126;57.908;16.490;2023-04-25T00:23:53;1.27;;;1.10;;
12124;SDS011;6126;57.908;16.490;2023-04-25T00:26:20;1.60;;;1.27;;
12124;SDS011;6126;57.908;16.490;2023-04-25T00:28:46;0.90;;;0.90;;
12124;SDS011;6126;57.908;16.490;2023-04-25T00:31:13;1.42;;;1.23;;
12124;SDS011;6126;57.908;16.490;2023-04-25T00:33:39;1.75;;;1.05;;
12124;SDS011;6126;57.908;16.490;2023-04-25T00:36:05;1.00;;;0.88;;
12124;SDS011;6126;57.908;16.490;2023-04-25T00:38:32;0.80;;;0.80;;
12124;SDS011;6126;57.908;16.490;2023-04-25T00:40:58;1.23;;;1.13;;
12124;SDS011;6126;57.908;16.490;2023-04-25T00:43:25;0.93;;;0.90;;
12124;SDS011;6126;57.908;16.490;2023-04-25T00:45:52;0.98;;;0.90;;
12124;SDS011;6126;57.908;16.490;2023-04-25T00:48:21;1.20;;;1.10;;
12124;SDS011;6126;57.908;16.490;2023-04-25T00:50:55;1.00;;;0.90;;
12124;SDS011;6126;57.908;16.490;2023-04-25T00:53:24;1.05;;;1.00;;
12124;SDS011;6126;57.908;16.490;2023-04-25T00:55:52;1.00;;;0.80;;
12124;SDS011;6126;57.908;16.490;2023-04-25T00:58:22;1.48;;;0.80;;
12124;SDS011;6126;57.908;16.490;2023-04-25T01:00:48;1.23;;;1.13;;
12124;SDS011;6126;57.908;16.490;2023-04-25T01:03:17;0.70;;;0.70;;
12124;SDS011;6126;57.908;16.490;2023-04-25T01:05:45;1.00;;;0.88;;
12124;SDS011;6126;57.908;16.490;2023-04-25T01:08:12;0.75;;;0.75;;
12124;SDS011;6126;57.908;16.490;2023-04-25T01:10:39;1.15;;;0.82;;
12124;SDS011;6126;57.908;16.490;2023-04-25T01:13:05;1.85;;;0.88;;
12124;SDS011;6126;57.908;16.490;2023-04-25T01:15:31;1.63;;;0.90;;
12124;SDS011;6126;57.908;16.490;2023-04-25T01:17:57;0.90;;;0.77;;
12124;SDS011;6126;57.908;16.490;2023-04-25T01:20:25;0.80;;;0.80;;
12124;SDS011;6126;57.908;16.490;2023-04-25T01:22:53;0.85;;;0.85;;
12124;SDS011;6126;57.908;16.490;2023-04-25T01:25:21;1.02;;;0.70;;
12124;SDS011;6126;57.908;16.490;2023-04-25T01:27:48;0.70;;;0.70;;
12124;SDS011;6126;57.908;16.490;2023-04-25T01:30:14;0.73;;;0.70;;
12124;SDS011;6126;57.908;16.490;2023-04-25T01:32:41;1.98;;;0.88;;
12124;SDS011;6126;57.908;16.490;2023-04-25T01:35:10;1.50;;;1.00;;
12124;SDS011;6126;57.908;16.490;2023-04-25T01:37:37;0.93;;;0.70;;
12124;SDS011;6126;57.908;16.490;2023-04-25T01:40:08;1.50;;;0.95;;
12124;SDS011;6126;57.908;16.490;2023-04-25T01:42:39;1.02;;;0.70;;
12124;SDS011;6126;57.908;16.490;2023-04-25T01:45:08;0.57;;;0.50;;
12124;SDS011;6126;57.908;16.490;2023-04-25T01:47:36;0.75;;;0.75;;
12124;SDS011;6126;57.908;16.490;2023-04-25T01:50:05;0.90;;;0.82;;
12124;SDS011;6126;57.908;16.490;2023-04-25T01:52:33;0.73;;;0.52;;
12124;SDS011;6126;57.908;16.490;2023-04-25T01:54:59;0.77;;;0.77;;
12124;SDS011;6126;57.908;16.490;2023-04-25T01:57:27;0.60;;;0.60;;
12124;SDS011;6126;57.908;16.490;2023-04-25T01:59:55;0.70;;;0.65;;
12124;SDS011;6126;57.908;16.490;2023-04-25T02:02:26;1.02;;;0.65;;
12124;SDS011;6126;57.908;16.490;2023-04-25T02:04:52;0.90;;;0.80;;
12124;SDS011;6126;57.908;16.490;2023-04-25T02:07:19;1.17;;;0.80;;
12124;SDS011;6126;57.908;16.490;2023-04-25T02:09:45;0.70;;;0.60;;
12124;SDS011;6126;57.908;16.490;2023-04-25T02:12:11;1.00;;;0.90;;
12124;SDS011;6126;57.908;16.490;2023-04-25T02:14:37;1.13;;;0.88;;
12124;SDS011;6126;57.908;16.490;2023-04-25T02:17:03;1.50;;;0.80;;
12124;SDS011;6126;57.908;16.490;2023-04-25T02:19:30;1.90;;;0.70;;
12124;SDS011;6126;57.908;16.490;2023-04-25T02:21:56;0.93;;;0.70;;
12124;SDS011;6126;57.908;16.490;2023-04-25T02:24:23;1.15;;;0.80;;
12124;SDS011;6126;57.908;16.490;2023-04-25T02:26:49;2.05;;;0.90;;
12124;SDS011;6126;57.908;16.490;2023-04-25T02:29:15;0.90;;;0.77;;
12124;SDS011;6126;57.908;16.490;2023-04-25T02:31:41;0.90;;;0.90;;
12124;SDS011;6126;57.908;16.490;2023-04-25T02:34:07;1.88;;;1.10;;
12124;SDS011;6126;57.908;16.490;2023-04-25T02:36:33;0.95;;;0.85;;
12124;SDS011;6126;57.908;16.490;2023-04-25T02:39:00;0.75;;;0.65;;
12124;SDS011;6126;57.908;16.490;2023-04-25T02:41:27;0.85;;;0.70;;
12124;SDS011;6126;57.908;16.490;2023-04-25T02:43:53;1.10;;;0.80;;
12124;SDS011;6126;57.908;16.490;2023-04-25T02:46:20;1.38;;;1.05;;
12124;SDS011;6126;57.908;16.490;2023-04-25T02:48:46;1.00;;;0.93;;
12124;SDS011;6126;57.908;16.490;2023-04-25T02:51:11;1.02;;;0.95;;
12124;SDS011;6126;57.908;16.490;2023-04-25T02:53:37;1.35;;;1.20;;
12124;SDS011;6126;57.908;16.490;2023-04-25T02:56:03;1.20;;;1.10;;
12124;SDS011;6126;57.908;16.490;2023-04-25T02:58:30;0.95;;;0.80;;
12124;SDS011;6126;57.908;16.490;2023-04-25T03:00:56;1.15;;;1.00;;
12124;SDS011;6126;57.908;16.490;2023-04-25T03:03:21;4.45;;;1.70;;
12124;SDS011;6126;57.908;16.490;2023-04-25T03:05:51;1.25;;;1.05;;
12124;SDS011;6126;57.908;16.490;2023-04-25T03:08:17;1.75;;;1.27;;
12124;SDS011;6126;57.908;16.490;2023-04-25T03:10:43;1.58;;;1.38;;
12124;SDS011;6126;57.908;16.490;2023-04-25T03:13:10;2.58;;;1.50;;
12124;SDS011;6126;57.908;16.490;2023-04-25T03:15:37;1.50;;;1.20;;
12124;SDS011;6126;57.908;16.490;2023-04-25T03:18:03;2.45;;;1.23;;
12124;SDS011;6126;57.908;16.490;2023-04-25T03:20:29;3.10;;;1.42;;
12124;SDS011;6126;57.908;16.490;2023-04-25T03:22:55;1.85;;;1.30;;
12124;SDS011;6126;57.908;16.490;2023-04-25T03:25:21;2.42;;;1.20;;
12124;SDS011;6126;57.908;16.490;2023-04-25T03:27:47;2.28;;;1.52;;
12124;SDS011;6126;57.908;16.490;2023-04-25T03:30:13;2.97;;;1.40;;
12124;SDS011;6126;57.908;16.490;2023-04-25T03:32:39;1.48;;;1.38;;
12124;SDS011;6126;57.908;16.490;2023-04-25T03:35:05;1.73;;;1.48;;
12124;SDS011;6126;57.908;16.490;2023-04-25T03:37:31;2.33;;;1.55;;
12124;SDS011;6126;57.908;16.490;2023-04-25T03:39:57;2.75;;;1.58;;
12124;SDS011;6126;57.908;16.490;2023-04-25T03:42:23;2.92;;;1.40;;
12124;SDS011;6126;57.908;16.490;2023-04-25T03:44:49;1.25;;;1.15;;
12124;SDS011;6126;57.908;16.490;2023-04-25T03:47:16;3.10;;;1.30;;
12124;SDS011;6126;57.908;16.490;2023-04-25T03:49:42;2.00;;;1.40;;
12124;SDS011;6126;57.908;16.490;2023-04-25T03:52:08;1.85;;;1.35;;
12124;SDS011;6126;57.908;16.490;2023-04-25T03:54:34;2.08;;;1.70;;
12124;SDS011;6126;57.908;16.490;2023-04-25T03:56:59;3.00;;;1.70;;
12124;SDS011;6126;57.908;16.490;2023-04-25T03:59:25;1.60;;;1.45;;
12124;SDS011;6126;57.908;16.490;2023-04-25T04:01:51;2.28;;;1.58;;
12124;SDS011;6126;57.908;16.490;2023-04-25T04:04:17;1.98;;;1.55;;
12124;SDS011;6126;57.908;16.490;2023-04-25T04:06:43;1.77;;;1.30;;
12124;SDS011;6126;57.908;16.490;2023-04-25T04:09:10;1.40;;;1.30;;
12124;SDS011;6126;57.908;16.490;2023-04-25T04:11:37;1.95;;;1.63;;
12124;SDS011;6126;57.908;16.490;2023-04-25T04:14:07;2.00;;;1.55;;
12124;SDS011;6126;57.908;16.490;2023-04-25T04:16:35;1.70;;;1.50;;
12124;SDS011;6126;57.908;16.490;2023-04-25T04:19:01;3.17;;;1.80;;
12124;SDS011;6126;57.908;16.490;2023-04-25T04:21:27;2.92;;;2.00;;
12124;SDS011;6126;57.908;16.490;2023-04-25T04:23:53;3.22;;;1.90;;
12124;SDS011;6126;57.908;16.490;2023-04-25T04:26:19;3.00;;;2.20;;
12124;SDS011;6126;57.908;16.490;2023-04-25T04:28:49;2.22;;;1.55;;
12124;SDS011;6126;57.908;16.490;2023-04-25T04:31:16;1.58;;;1.42;;
12124;SDS011;6126;57.908;16.490;2023-04-25T04:33:44;1.75;;;1.55;;
12124;SDS011;6126;57.908;16.490;2023-04-25T04:36:11;2.03;;;1.80;;
12124;SDS011;6126;57.908;16.490;2023-04-25T04:38:38;3.03;;;2.30;;
12124;SDS011;6126;57.908;16.490;2023-04-25T04:41:05;2.22;;;1.80;;
12124;SDS011;6126;57.908;16.490;2023-04-25T04:43:31;4.45;;;2.88;;
12124;SDS011;6126;57.908;16.490;2023-04-25T04:45:58;2.75;;;2.45;;
12124;SDS011;6126;57.908;16.490;2023-04-25T04:48:26;3.03;;;2.15;;
12124;SDS011;6126;57.908;16.490;2023-04-25T04:50:52;4.15;;;2.53;;
12124;SDS011;6126;57.908;16.490;2023-04-25T04:53:18;3.30;;;2.30;;
12124;SDS011;6126;57.908;16.490;2023-04-25T04:55:44;2.95;;;2.65;;
12124;SDS011;6126;57.908;16.490;2023-04-25T04:58:11;3.38;;;2.45;;
12124;SDS011;6126;57.908;16.490;2023-04-25T05:00:37;2.97;;;2.47;;
12124;SDS011;6126;57.908;16.490;2023-04-25T05:03:03;3.45;;;2.42;;
12124;SDS011;6126;57.908;16.490;2023-04-25T05:05:30;2.40;;;2.10;;
12124;SDS011;6126;57.908;16.490;2023-04-25T05:07:56;2.40;;;1.95;;
12124;SDS011;6126;57.908;16.490;2023-04-25T05:10:22;3.17;;;2.40;;
12124;SDS011;6126;57.908;16.490;2023-04-25T05:12:48;4.13;;;2.42;;
12124;SDS011;6126;57.908;16.490;2023-04-25T05:15:14;7.32;;;2.65;;
12124;SDS011;6126;57.908;16.490;2023-04-25T05:17:40;3.10;;;2.17;;
12124;SDS011;6126;57.908;16.490;2023-04-25T05:20:06;2.58;;;2.15;;
12124;SDS011;6126;57.908;16.490;2023-04-25T05:22:36;3.60;;;2.70;;
12124;SDS011;6126;57.908;16.490;2023-04-25T05:25:02;2.83;;;2.17;;
12124;SDS011;6126;57.908;16.490;2023-04-25T05:27:29;3.08;;;2.40;;
12124;SDS011;6126;57.908;16.490;2023-04-25T05:29:54;2.85;;;2.05;;
12124;SDS011;6126;57.908;16.490;2023-04-25T05:32:20;2.50;;;2.20;;
12124;SDS011;6126;57.908;16.490;2023-04-25T05:34:46;2.72;;;1.75;;
12124;SDS011;6126;57.908;16.490;2023-04-25T05:37:12;11.15;;;2.28;;
12124;SDS011;6126;57.908;16.490;2023-04-25T05:39:38;1.98;;;1.55;;
12124;SDS011;6126;57.908;16.490;2023-04-25T05:42:03;7.93;;;1.98;;
12124;SDS011;6126;57.908;16.490;2023-04-25T05:44:30;6.40;;;1.80;;
12124;SDS011;6126;57.908;16.490;2023-04-25T05:46:56;2.20;;;1.67;;
12124;SDS011;6126;57.908;16.490;2023-04-25T05:49:22;2.50;;;1.85;;
12124;SDS011;6126;57.908;16.490;2023-04-25T05:51:48;2.92;;;2.20;;
12124;SDS011;6126;57.908;16.490;2023-04-25T05:54:13;3.30;;;2.30;;
12124;SDS011;6126;57.908;16.490;2023-04-25T05:56:39;3.42;;;3.13;;
12124;SDS011;6126;57.908;16.490;2023-04-25T05:59:05;5.20;;;3.72;;
12124;SDS011;6126;57.908;16.490;2023-04-25T06:01:31;6.22;;;3.50;;
12124;SDS011;6126;57.908;16.490;2023-04-25T06:03:57;4.47;;;3.08;;
12124;SDS011;6126;57.908;16.490;2023-04-25T06:06:23;5.15;;;3.70;;
12124;SDS011;6126;57.908;16.490;2023-04-25T06:08:49;6.57;;;3.95;;
12124;SDS011;6126;57.908;16.490;2023-04-25T06:11:15;4.60;;;3.45;;
12124;SDS011;6126;57.908;16.490;2023-04-25T06:13:41;9.57;;;3.70;;
12124;SDS011;6126;57.908;16.490;2023-04-25T06:16:07;6.03;;;3.20;;
12124;SDS011;6126;57.908;16.490;2023-04-25T06:18:33;12.20;;;3.35;;
12124;SDS011;6126;57.908;16.490;2023-04-25T06:20:58;5.00;;;3.15;;
12124;SDS011;6126;57.908;16.490;2023-04-25T06:23:24;3.33;;;2.40;;
12124;SDS011;6126;57.908;16.490;2023-04-25T06:25:50;4.68;;;2.92;;
12124;SDS011;6126;57.908;16.490;2023-04-25T06:28:16;5.57;;;3.10;;
12124;SDS011;6126;57.908;16.490;2023-04-25T06:30:42;4.47;;;2.55;;
12124;SDS011;6126;57.908;16.490;2023-04-25T06:33:08;3.50;;;2.50;;
12124;SDS011;6126;57.908;16.490;2023-04-25T06:35:34;4.10;;;2.72;;
12124;SDS011;6126;57.908;16.490;2023-04-25T06:38:00;3.85;;;2.20;;
12124;SDS011;6126;57.908;16.490;2023-04-25T06:40:26;4.68;;;2.88;;
12124;SDS011;6126;57.908;16.490;2023-04-25T06:42:52;5.18;;;3.08;;
12124;SDS011;6126;57.908;16.490;2023-04-25T06:45:18;4.65;;;3.13;;
12124;SDS011;6126;57.908;16.490;2023-04-25T06:47:43;4.03;;;3.33;;
12124;SDS011;6126;57.908;16.490;2023-04-25T06:50:09;4.15;;;2.95;;
12124;SDS011;6126;57.908;16.490;2023-04-25T06:52:36;4.32;;;3.00;;
12124;SDS011;6126;57.908;16.490;2023-04-25T06:55:01;4.85;;;3.30;;
12124;SDS011;6126;57.908;16.490;2023-04-25T06:57:29;6.88;;;4.75;;
12124;SDS011;6126;57.908;16.490;2023-04-25T06:59:54;5.30;;;4.05;;
12124;SDS011;6126;57.908;16.490;2023-04-25T07:02:20;5.72;;;4.07;;
12124;SDS011;6126;57.908;16.490;2023-04-25T07:04:47;6.00;;;3.45;;
12124;SDS011;6126;57.908;16.490;2023-04-25T07:07:13;4.22;;;3.10;;
12124;SDS011;6126;57.908;16.490;2023-04-25T07:09:39;3.88;;;3.17;;
12124;SDS011;6126;57.908;16.490;2023-04-25T07:12:05;5.28;;;3.50;;
12124;SDS011;6126;57.908;16.490;2023-04-25T07:14:31;4.15;;;3.15;;
12124;SDS011;6126;57.908;16.490;2023-04-25T07:16:57;4.43;;;3.42;;
12124;SDS011;6126;57.908;16.490;2023-04-25T07:19:23;4.85;;;3.83;;
12124;SDS011;6126;57.908;16.490;2023-04-25T07:21:51;5.28;;;3.78;;
12124;SDS011;6126;57.908;16.490;2023-04-25T07:24:17;3.80;;;3.40;;
12124;SDS011;6126;57.908;16.490;2023-04-25T07:26:43;4.45;;;3.22;;
12124;SDS011;6126;57.908;16.490;2023-04-25T07:29:09;5.80;;;4.47;;
12124;SDS011;6126;57.908;16.490;2023-04-25T07:31:35;6.05;;;3.80;;
12124;SDS011;6126;57.908;16.490;2023-04-25T07:34:01;4.60;;;3.42;;
12124;SDS011;6126;57.908;16.490;2023-04-25T07:36:27;3.95;;;3.00;;
12124;SDS011;6126;57.908;16.490;2023-04-25T07:38:53;4.97;;;3.72;;
12124;SDS011;6126;57.908;16.490;2023-04-25T07:41:19;8.23;;;5.85;;
12124;SDS011;6126;57.908;16.490;2023-04-25T07:43:45;4.53;;;3.85;;
12124;SDS011;6126;57.908;16.490;2023-04-25T07:46:11;5.00;;;3.28;;
12124;SDS011;6126;57.908;16.490;2023-04-25T07:48:37;7.97;;;5.57;;
12124;SDS011;6126;57.908;16.490;2023-04-25T07:51:02;5.95;;;3.83;;
12124;SDS011;6126;57.908;16.490;2023-04-25T07:53:30;5.90;;;3.40;;
12124;SDS011;6126;57.908;16.490;2023-04-25T07:55:57;4.20;;;3.22;;
12124;SDS011;6126;57.908;16.490;2023-04-25T07:58:23;3.00;;;2.70;;
12124;SDS011;6126;57.908;16.490;2023-04-25T08:00:49;4.70;;;3.40;;
12124;SDS011;6126;57.908;16.490;2023-04-25T08:03:15;6.03;;;3.10;;
12124;SDS011;6126;57.908;16.490;2023-04-25T08:05:41;4.47;;;3.40;;
12124;SDS011;6126;57.908;16.490;2023-04-25T08:08:06;4.05;;;3.55;;
12124;SDS011;6126;57.908;16.490;2023-04-25T08:10:32;6.22;;;3.45;;
12124;SDS011;6126;57.908;16.490;2023-04-25T08:12:59;4.80;;;3.85;;
12124;SDS011;6126;57.908;16.490;2023-04-25T08:15:25;6.22;;;4.40;;
12124;SDS011;6126;57.908;16.490;2023-04-25T08:17:51;5.22;;;3.97;;
12124;SDS011;6126;57.908;16.490;2023-04-25T08:20:17;4.63;;;3.30;;
12124;SDS011;6126;57.908;16.490;2023-04-25T08:22:43;3.80;;;3.38;;
12124;SDS011;6126;57.908;16.490;2023-04-25T08:25:09;4.07;;;3.28;;
12124;SDS011;6126;57.908;16.490;2023-04-25T08:27:35;4.30;;;3.10;;
12124;SDS011;6126;57.908;16.490;2023-04-25T08:30:01;3.63;;;3.08;;
12124;SDS011;6126;57.908;16.490;2023-04-25T08:32:28;3.45;;;2.97;;
12124;SDS011;6126;57.908;16.490;2023-04-25T08:34:54;4.47;;;3.13;;
12124;SDS011;6126;57.908;16.490;2023-04-25T08:37:20;3.40;;;2.97;;
12124;SDS011;6126;57.908;16.490;2023-04-25T08:39:47;4.15;;;3.03;;
12124;SDS011;6126;57.908;16.490;2023-04-25T08:42:17;4.13;;;2.90;;
12124;SDS011;6126;57.908;16.490;2023-04-25T08:44:45;5.05;;;3.53;;
12124;SDS011;6126;57.908;16.490;2023-04-25T08:47:13;4.85;;;3.13;;
12124;SDS011;6126;57.908;16.490;2023-04-25T08:49:39;6.82;;;4.00;;
12124;SDS011;6126;57.908;16.490;2023-04-25T08:52:11;6.68;;;4.13;;
12124;SDS011;6126;57.908;16.490;2023-04-25T08:54:41;5.97;;;4.10;;
12124;SDS011;6126;57.908;16.490;2023-04-25T08:57:13;5.85;;;4.63;;
12124;SDS011;6126;57.908;16.490;2023-04-25T08:59:40;6.88;;;5.10;;
12124;SDS011;6126;57.908;16.490;2023-04-25T09:02:10;6.70;;;4.68;;
12124;SDS011;6126;57.908;16.490;2023-04-25T09:04:42;7.50;;;5.03;;
12124;SDS011;6126;57.908;16.490;2023-04-25T09:07:09;5.97;;;4.32;;
12124;SDS011;6126;57.908;16.490;2023-04-25T09:09:35;7.15;;;4.85;;
12124;SDS011;6126;57.908;16.490;2023-04-25T09:12:01;7.00;;;5.60;;
12124;SDS011;6126;57.908;16.490;2023-04-25T09:14:27;7.93;;;5.75;;
12124;SDS011;6126;57.908;16.490;2023-04-25T09:19:26;8.27;;;5.85;;
12124;SDS011;6126;57.908;16.490;2023-04-25T09:21:58;8.48;;;6.07;;
12124;SDS011;6126;57.908;16.490;2023-04-25T09:27:09;10.43;;;6.32;;
12124;SDS011;6126;57.908;16.490;2023-04-25T09:29:38;10.63;;;6.50;;
12124;SDS011;6126;57.908;16.490;2023-04-25T09:34:47;9.40;;;6.25;;
12124;SDS011;6126;57.908;16.490;2023-04-25T09:40:03;9.25;;;6.57;;
12124;SDS011;6126;57.908;16.490;2023-04-25T09:42:35;10.57;;;6.95;;
12124;SDS011;6126;57.908;16.490;2023-04-25T09:45:02;9.15;;;6.35;;
12124;SDS011;6126;57.908;16.490;2023-04-25T09:47:29;10.13;;;6.85;;
12124;SDS011;6126;57.908;16.490;2023-04-25T09:49:55;9.20;;;6.43;;
12124;SDS011;6126;57.908;16.490;2023-04-25T09:52:22;12.48;;;7.28;;
12124;SDS011;6126;57.908;16.490;2023-04-25T09:54:50;11.25;;;6.97;;
12124;SDS011;6126;57.908;16.490;2023-04-25T09:57:17;11.13;;;7.22;;
12124;SDS011;6126;57.908;16.490;2023-04-25T09:59:49;12.82;;;6.43;;
12124;SDS011;6126;57.908;16.490;2023-04-25T10:02:21;10.45;;;7.30;;
12124;SDS011;6126;57.908;16.490;2023-04-25T10:04:51;9.55;;;6.43;;
12124;SDS011;6126;57.908;16.490;2023-04-25T10:07:20;10.77;;;7.55;;
12124;SDS011;6126;57.908;16.490;2023-04-25T10:09:54;8.98;;;6.32;;
12124;SDS011;6126;57.908;16.490;2023-04-25T10:12:29;9.55;;;6.30;;
12124;SDS011;6126;57.908;16.490;2023-04-25T10:14:57;9.30;;;6.70;;
12124;SDS011;6126;57.908;16.490;2023-04-25T10:17:23;7.68;;;5.65;;
12124;SDS011;6126;57.908;16.490;2023-04-25T10:19:52;7.72;;;5.95;;
12124;SDS011;6126;57.908;16.490;2023-04-25T10:22:29;9.40;;;6.72;;
12124;SDS011;6126;57.908;16.490;2023-04-25T10:25:04;7.63;;;5.90;;
12124;SDS011;6126;57.908;16.490;2023-04-25T10:27:33;8.00;;;6.35;;
12124;SDS011;6126;57.908;16.490;2023-04-25T10:30:09;6.38;;;5.15;;
12124;SDS011;6126;57.908;16.490;2023-04-25T10:32:43;7.57;;;5.60;;
12124;SDS011;6126;57.908;16.490;2023-04-25T10:37:58;7.00;;;4.72;;
12124;SDS011;6126;57.908;16.490;2023-04-25T10:40:25;8.27;;;5.30;;
12124;SDS011;6126;57.908;16.490;2023-04-25T10:42:52;6.68;;;5.00;;
12124;SDS011;6126;57.908;16.490;2023-04-25T10:45:21;6.15;;;5.10;;
12124;SDS011;6126;57.908;16.490;2023-04-25T10:47:47;5.18;;;3.92;;
12124;SDS011;6126;57.908;16.490;2023-04-25T10:50:14;6.95;;;4.72;;
12124;SDS011;6126;57.908;16.490;2023-04-25T10:52:43;4.43;;;4.00;;
12124;SDS011;6126;57.908;16.490;2023-04-25T10:55:10;5.50;;;4.50;;
12124;SDS011;6126;57.908;16.490;2023-04-25T10:57:39;6.40;;;5.60;;
12124;SDS011;6126;57.908;16.490;2023-04-25T11:02:40;4.70;;;4.28;;
12124;SDS011;6126;57.908;16.490;2023-04-25T11:05:32;5.57;;;4.18;;
12124;SDS011;6126;57.908;16.490;2023-04-25T11:08:00;6.65;;;4.25;;
12124;SDS011;6126;57.908;16.490;2023-04-25T11:10:29;7.47;;;4.35;;
12124;SDS011;6126;57.908;16.490;2023-04-25T11:12:57;4.82;;;4.20;;
12124;SDS011;6126;57.908;16.490;2023-04-25T11:15:24;5.50;;;4.60;;
12124;SDS011;6126;57.908;16.490;2023-04-25T11:17:51;7.03;;;4.00;;
12124;SDS011;6126;57.908;16.490;2023-04-25T11:20:18;4.45;;;3.58;;
12124;SDS011;6126;57.908;16.490;2023-04-25T11:22:45;4.72;;;3.00;;
12124;SDS011;6126;57.908;16.490;2023-04-25T11:25:13;3.42;;;2.67;;
12124;SDS011;6126;57.908;16.490;2023-04-25T11:27:50;3.83;;;3.05;;
12124;SDS011;6126;57.908;16.490;2023-04-25T11:30:16;2.58;;;2.38;;
12124;SDS011;6126;57.908;16.490;2023-04-25T11:32:43;4.40;;;3.10;;
12124;SDS011;6126;57.908;16.490;2023-04-25T11:35:10;4.40;;;3.03;;
12124;SDS011;6126;57.908;16.490;2023-04-25T11:37:38;6.40;;;4.93;;
12124;SDS011;6126;57.908;16.490;2023-04-25T11:40:05;4.63;;;3.65;;
12124;SDS011;6126;57.908;16.490;2023-04-25T11:42:33;3.08;;;2.40;;
12124;SDS011;6126;57.908;16.490;2023-04-25T11:45:01;2.38;;;2.17;;
12124;SDS011;6126;57.908;16.490;2023-04-25T11:47:32;2.55;;;2.25;;
12124;SDS011;6126;57.908;16.490;2023-04-25T11:49:59;2.28;;;2.05;;
12124;SDS011;6126;57.908;16.490;2023-04-25T11:52:45;3.05;;;2.40;;
12124;SDS011;6126;57.908;16.490;2023-04-25T11:55:16;2.70;;;2.00;;
12124;SDS011;6126;57.908;16.490;2023-04-25T11:57:47;4.10;;;2.10;;
12124;SDS011;6126;57.908;16.490;2023-04-25T12:02:51;5.85;;;1.88;;
12124;SDS011;6126;57.908;16.490;2023-04-25T12:05:19;2.85;;;2.10;;
12124;SDS011;6126;57.908;16.490;2023-04-25T12:07:48;2.38;;;1.75;;
12124;SDS011;6126;57.908;16.490;2023-04-25T12:10:15;2.83;;;2.10;;
12124;SDS011;6126;57.908;16.490;2023-04-25T12:12:43;4.30;;;1.85;;
12124;SDS011;6126;57.908;16.490;2023-04-25T12:15:12;2.67;;;1.63;;
12124;SDS011;6126;57.908;16.490;2023-04-25T12:17:48;2.72;;;1.85;;
12124;SDS011;6126;57.908;16.490;2023-04-25T12:20:17;1.80;;;1.70;;
12124;SDS011;6126;57.908;16.490;2023-04-25T12:22:48;4.35;;;1.70;;
12124;SDS011;6126;57.908;16.490;2023-04-25T12:28:13;3.92;;;1.88;;
12124;SDS011;6126;57.908;16.490;2023-04-25T12:33:30;1.80;;;1.70;;
12124;SDS011;6126;57.908;16.490;2023-04-25T12:36:01;3.28;;;2.13;;
12124;SDS011;6126;57.908;16.490;2023-04-25T12:38:39;1.60;;;1.50;;
12124;SDS011;6126;57.908;16.490;2023-04-25T12:41:07;2.17;;;1.98;;
12124;SDS011;6126;57.908;16.490;2023-04-25T12:43:34;1.55;;;1.42;;
12124;SDS011;6126;57.908;16.490;2023-04-25T12:46:00;3.40;;;1.55;;
12124;SDS011;6126;57.908;16.490;2023-04-25T12:48:26;1.58;;;1.40;;
12124;SDS011;6126;57.908;16.490;2023-04-25T12:50:52;1.85;;;1.50;;
12124;SDS011;6126;57.908;16.490;2023-04-25T12:53:18;2.17;;;1.98;;
12124;SDS011;6126;57.908;16.490;2023-04-25T12:55:46;1.40;;;1.30;;
12124;SDS011;6126;57.908;16.490;2023-04-25T12:58:14;1.95;;;1.27;;
12124;SDS011;6126;57.908;16.490;2023-04-25T13:00:42;1.27;;;1.17;;
12124;SDS011;6126;57.908;16.490;2023-04-25T13:03:09;0.90;;;0.90;;
12124;SDS011;6126;57.908;16.490;2023-04-25T13:05:36;1.15;;;1.05;;
12124;SDS011;6126;57.908;16.490;2023-04-25T13:08:02;1.23;;;0.82;;
12124;SDS011;6126;57.908;16.490;2023-04-25T13:10:29;1.55;;;1.10;;
12124;SDS011;6126;57.908;16.490;2023-04-25T13:12:55;0.65;;;0.65;;
12124;SDS011;6126;57.908;16.490;2023-04-25T13:15:22;1.25;;;0.80;;
12124;SDS011;6126;57.908;16.490;2023-04-25T13:17:48;1.00;;;0.90;;
12124;SDS011;6126;57.908;16.490;2023-04-25T13:20:14;1.52;;;0.80;;
12124;SDS011;6126;57.908;16.490;2023-04-25T13:22:41;0.70;;;0.70;;
12124;SDS011;6126;57.908;16.490;2023-04-25T13:25:08;0.95;;;0.80;;
12124;SDS011;6126;57.908;16.490;2023-04-25T13:27:34;0.80;;;0.80;;
12124;SDS011;6126;57.908;16.490;2023-04-25T13:30:03;1.65;;;0.82;;
12124;SDS011;6126;57.908;16.490;2023-04-25T13:32:33;0.70;;;0.70;;
12124;SDS011;6126;57.908;16.490;2023-04-25T13:35:03;0.95;;;0.88;;
12124;SDS011;6126;57.908;16.490;2023-04-25T13:37:31;5.20;;;1.00;;
12124;SDS011;6126;57.908;16.490;2023-04-25T13:40:01;0.70;;;0.70;;
12124;SDS011;6126;57.908;16.490;2023-04-25T13:42:34;0.80;;;0.70;;
12124;SDS011;6126;57.908;16.490;2023-04-25T13:45:01;1.50;;;0.65;;
12124;SDS011;6126;57.908;16.490;2023-04-25T13:47:28;0.60;;;0.60;;
12124;SDS011;6126;57.908;16.490;2023-04-25T13:49:55;2.00;;;0.77;;
12124;SDS011;6126;57.908;16.490;2023-04-25T13:52:21;0.77;;;0.77;;
12124;SDS011;6126;57.908;16.490;2023-04-25T13:54:49;1.45;;;1.33;;
12124;SDS011;6126;57.908;16.490;2023-04-25T13:57:16;1.30;;;1.20;;
12124;SDS011;6126;57.908;16.490;2023-04-25T13:59:42;2.67;;;2.45;;
12124;SDS011;6126;57.908;16.490;2023-04-25T14:02:09;3.17;;;1.30;;
12124;SDS011;6126;57.908;16.490;2023-04-25T14:04:35;1.88;;;1.02;;
12124;SDS011;6126;57.908;16.490;2023-04-25T14:07:01;1.50;;;1.20;;
12124;SDS011;6126;57.908;16.490;2023-04-25T14:09:28;1.30;;;1.20;;
12124;SDS011;6126;57.908;16.490;2023-04-25T14:11:54;1.13;;;1.02;;
12124;SDS011;6126;57.908;16.490;2023-04-25T14:14:21;1.05;;;0.95;;
12124;SDS011;6126;57.908;16.490;2023-04-25T14:16:48;1.73;;;1.10;;
12124;SDS011;6126;57.908;16.490;2023-04-25T14:19:15;0.82;;;0.82;;
12124;SDS011;6126;57.908;16.490;2023-04-25T14:21:42;1.70;;;0.90;;
12124;SDS011;6126;57.908;16.490;2023-04-25T14:24:08;1.00;;;0.90;;
12124;SDS011;6126;57.908;16.490;2023-04-25T14:26:36;0.85;;;0.85;;
12124;SDS011;6126;57.908;16.490;2023-04-25T14:29:03;1.02;;;1.00;;
12124;SDS011;6126;57.908;16.490;2023-04-25T14:31:34;1.20;;;1.10;;
12124;SDS011;6126;57.908;16.490;2023-04-25T14:34:01;0.88;;;0.85;;
12124;SDS011;6126;57.908;16.490;2023-04-25T14:36:30;1.00;;;0.88;;
12124;SDS011;6126;57.908;16.490;2023-04-25T14:38:57;0.90;;;0.90;;
12124;SDS011;6126;57.908;16.490;2023-04-25T14:41:24;1.30;;;1.20;;
12124;SDS011;6126;57.908;16.490;2023-04-25T14:43:50;1.42;;;0.90;;
12124;SDS011;6126;57.908;16.490;2023-04-25T14:46:21;0.95;;;0.85;;
12124;SDS011;6126;57.908;16.490;2023-04-25T14:48:51;1.02;;;0.70;;
12124;SDS011;6126;57.908;16.490;2023-04-25T14:51:17;0.68;;;0.68;;
12124;SDS011;6126;57.908;16.490;2023-04-25T14:53:42;0.93;;;0.88;;
12124;SDS011;6126;57.908;16.490;2023-04-25T14:56:09;1.85;;;0.60;;
12124;SDS011;6126;57.908;16.490;2023-04-25T14:58:35;0.70;;;0.70;;
12124;SDS011;6126;57.908;16.490;2023-04-25T15:01:00;0.63;;;0.63;;
12124;SDS011;6126;57.908;16.490;2023-04-25T15:03:26;1.20;;;0.93;;
12124;SDS011;6126;57.908;16.490;2023-04-25T15:05:54;0.55;;;0.47;;
12124;SDS011;6126;57.908;16.490;2023-04-25T15:08:20;0.45;;;0.45;;
12124;SDS011;6126;57.908;16.490;2023-04-25T15:10:46;2.03;;;0.50;;
12124;SDS011;6126;57.908;16.490;2023-04-25T15:13:12;0.60;;;0.50;;